createdAt,value
2019-05-17T00:01:16.765Z,6.23
2019-05-17T00:03:47.117Z,6.80
2019-05-17T00:06:16.858Z,6.57
2019-05-17T00:08:47.267Z,6.40
2019-05-17T00:11:16.877Z,6.93
2019-05-17T00:13:46.650Z,7.17
2019-05-17T00:16:17.504Z,6.67
2019-05-17T00:18:46.782Z,7.00
2019-05-17T00:21:16.912Z,6.70
2019-05-17T00:23:47.009Z,6.13
2019-05-17T00:26:16.508Z,6.80
2019-05-17T00:28:46.912Z,6.40
2019-05-17T00:31:17.238Z,6.80
2019-05-17T00:33:47.152Z,6.50
2019-05-17T00:36:17.844Z,6.70
2019-05-17T00:38:51.272Z,7.20
2019-05-17T00:41:17.919Z,6.53
2019-05-17T00:43:47.074Z,6.33
2019-05-17T00:46:17.237Z,6.90
2019-05-17T00:48:46.657Z,6.23
2019-05-17T00:51:16.685Z,6.93
2019-05-17T00:53:46.794Z,6.67
2019-05-17T00:56:17.128Z,5.80
2019-05-17T00:58:47.754Z,6.00
2019-05-17T01:01:17.306Z,6.17
2019-05-17T01:03:47.703Z,5.93
2019-05-17T01:06:17.046Z,6.57
2019-05-17T01:08:47.492Z,5.77
2019-05-17T01:11:16.652Z,6.33
2019-05-17T01:13:46.701Z,7.80
2019-05-17T01:16:16.659Z,6.70
2019-05-17T01:18:47.019Z,6.60
2019-05-17T01:21:17.308Z,6.60
2019-05-17T01:23:46.766Z,6.53
2019-05-17T01:26:18.270Z,6.30
2019-05-17T01:28:46.832Z,7.37
2019-05-17T01:31:17.232Z,6.50
2019-05-17T01:33:47.059Z,6.77
2019-05-17T01:36:17.335Z,6.30
2019-05-17T01:38:46.912Z,6.60
2019-05-17T01:41:17.368Z,6.30
2019-05-17T01:43:47.412Z,6.07
2019-05-17T01:46:17.292Z,5.97
2019-05-17T01:48:47.135Z,6.80
2019-05-17T01:51:16.935Z,6.20
2019-05-17T01:53:47.016Z,6.30
2019-05-17T01:56:16.931Z,6.07
2019-05-17T01:58:47.005Z,6.83
2019-05-17T02:01:17.025Z,7.50
2019-05-17T02:03:46.948Z,6.67
2019-05-17T02:06:16.605Z,7.10
2019-05-17T02:08:47.491Z,6.50
2019-05-17T02:11:18.432Z,7.50
2019-05-17T02:13:47.680Z,6.93
2019-05-17T02:16:16.672Z,7.13
2019-05-17T02:18:46.582Z,7.30
2019-05-17T02:21:16.862Z,7.43
2019-05-17T02:23:46.908Z,6.13
2019-05-17T02:26:17.383Z,6.57
2019-05-17T02:28:46.453Z,6.60
2019-05-17T02:31:15.561Z,7.20
2019-05-17T02:33:44.566Z,7.37
2019-05-17T02:36:14.169Z,7.10
2019-05-17T02:38:43.897Z,6.90
2019-05-17T02:41:14.102Z,6.60
2019-05-17T02:43:43.713Z,6.60
2019-05-17T02:46:13.601Z,7.33
2019-05-17T02:48:43.148Z,7.43
2019-05-17T02:51:13.153Z,7.20
2019-05-17T02:53:43.088Z,7.07
2019-05-17T02:56:13.427Z,7.50
2019-05-17T02:58:43.959Z,7.03
2019-05-17T03:01:13.213Z,7.00
2019-05-17T03:03:43.741Z,6.47
2019-05-17T03:06:13.686Z,6.93
2019-05-17T03:08:43.066Z,7.40
2019-05-17T03:11:13.591Z,7.53
2019-05-17T03:13:43.405Z,7.30
2019-05-17T03:16:14.773Z,7.20
2019-05-17T03:18:43.972Z,7.10
2019-05-17T03:21:13.650Z,8.43
2019-05-17T03:23:43.733Z,7.30
2019-05-17T03:26:13.296Z,7.30
2019-05-17T03:28:42.868Z,7.80
2019-05-17T03:31:16.882Z,7.00
2019-05-17T03:33:45.965Z,7.60
2019-05-17T03:36:16.894Z,7.60
2019-05-17T03:38:44.707Z,7.97
2019-05-17T03:41:23.495Z,7.90
2019-05-17T03:43:44.481Z,8.63
2019-05-17T03:46:14.188Z,8.10
2019-05-17T03:48:43.737Z,7.50
2019-05-17T03:51:13.236Z,7.37
2019-05-17T03:53:44.230Z,7.73
2019-05-17T03:56:13.486Z,8.67
2019-05-17T03:58:43.395Z,7.90
2019-05-17T04:01:14.019Z,9.20
2019-05-17T04:03:43.650Z,7.80
2019-05-17T04:06:13.316Z,8.40
2019-05-17T04:08:42.760Z,8.83
2019-05-17T04:11:22.316Z,7.47
2019-05-17T04:13:43.103Z,8.23
2019-05-17T04:16:13.961Z,8.37
2019-05-17T04:18:43.855Z,8.67
2019-05-17T04:21:13.209Z,8.20
2019-05-17T04:23:42.892Z,8.67
2019-05-17T04:26:13.520Z,7.93
2019-05-17T04:28:44.075Z,8.00
2019-05-17T04:31:13.733Z,9.03
2019-05-17T04:33:43.117Z,7.90
2019-05-17T04:36:13.106Z,8.80
2019-05-17T04:38:43.599Z,8.87
2019-05-17T04:41:13.427Z,9.03
2019-05-17T04:43:42.639Z,8.07
2019-05-17T04:46:12.924Z,8.73
2019-05-17T04:48:43.773Z,8.43
2019-05-17T04:51:13.476Z,9.10
2019-05-17T04:53:43.036Z,9.07
2019-05-17T04:56:14.058Z,9.47
2019-05-17T04:58:43.072Z,9.70
2019-05-17T05:01:13.205Z,9.40
2019-05-17T05:03:42.961Z,9.10
2019-05-17T05:06:13.331Z,9.90
2019-05-17T05:08:42.778Z,9.37
2019-05-17T05:11:12.647Z,9.73
2019-05-17T05:13:42.638Z,10.07
2019-05-17T05:16:13.494Z,9.43
2019-05-17T05:18:42.664Z,10.30
2019-05-17T05:21:12.243Z,10.33
2019-05-17T05:23:42.444Z,9.23
2019-05-17T05:26:12.015Z,10.27
2019-05-17T05:28:41.965Z,9.47
2019-05-17T05:31:13.108Z,9.50
2019-05-17T05:33:41.989Z,9.60
2019-05-17T05:36:11.427Z,9.87
2019-05-17T05:38:42.251Z,9.00
2019-05-17T05:41:12.224Z,9.70
2019-05-17T05:43:42.000Z,9.60
2019-05-17T05:46:11.696Z,8.60
2019-05-17T05:48:41.736Z,8.67
2019-05-17T05:51:13.457Z,9.10
2019-05-17T05:53:41.910Z,8.70
2019-05-17T05:56:13.316Z,8.60
2019-05-17T05:58:42.819Z,8.40
2019-05-17T06:01:12.730Z,9.00
2019-05-17T06:03:41.961Z,9.17
2019-05-17T06:06:12.379Z,10.20
2019-05-17T06:08:41.564Z,10.13
2019-05-17T06:11:12.322Z,10.77
2019-05-17T06:13:41.888Z,10.27
2019-05-17T06:16:11.996Z,10.93
2019-05-17T06:18:42.541Z,11.00
2019-05-17T06:21:12.263Z,12.33
2019-05-17T06:23:42.475Z,9.63
2019-05-17T06:26:12.451Z,10.50
2019-05-17T06:28:42.716Z,10.83
2019-05-17T06:31:11.581Z,10.87
2019-05-17T06:33:42.171Z,10.10
2019-05-17T06:36:13.490Z,10.93
2019-05-17T06:38:42.094Z,10.17
2019-05-17T06:41:12.662Z,11.73
2019-05-17T06:43:41.814Z,10.53
2019-05-17T06:46:12.460Z,10.13
2019-05-17T06:48:42.391Z,10.80
2019-05-17T06:51:12.075Z,9.60
2019-05-17T06:53:43.583Z,11.40
2019-05-17T06:56:12.938Z,10.27
2019-05-17T06:58:42.364Z,9.87
2019-05-17T07:01:11.626Z,10.20
2019-05-17T07:03:40.553Z,11.10
2019-05-17T07:06:11.984Z,10.80
2019-05-17T07:08:41.271Z,10.93
2019-05-17T07:11:10.194Z,9.50
2019-05-17T07:13:39.582Z,10.73
2019-05-17T07:16:10.198Z,10.60
2019-05-17T07:18:39.975Z,10.30
2019-05-17T07:21:10.242Z,10.63
2019-05-17T07:23:39.840Z,11.00
2019-05-17T07:26:11.798Z,10.63
2019-05-17T07:28:40.487Z,15.27
2019-05-17T07:31:10.188Z,13.33
2019-05-17T07:33:39.926Z,10.90
2019-05-17T07:36:10.201Z,10.13
2019-05-17T07:38:39.663Z,11.40
2019-05-17T07:41:10.124Z,11.70
2019-05-17T07:43:40.468Z,11.43
2019-05-17T07:46:09.746Z,10.77
2019-05-17T07:48:40.576Z,12.20
2019-05-17T07:51:10.116Z,11.33
2019-05-17T07:53:40.035Z,11.60
2019-05-17T07:56:10.259Z,16.50
2019-05-17T07:58:40.384Z,11.23
2019-05-17T08:01:10.136Z,11.87
2019-05-17T08:03:40.622Z,11.50
2019-05-17T08:06:10.675Z,10.27
2019-05-17T08:08:40.919Z,10.27
2019-05-17T08:11:10.721Z,12.13
2019-05-17T08:13:39.957Z,11.07
2019-05-17T08:16:10.275Z,10.50
2019-05-17T08:18:40.269Z,10.30
2019-05-17T08:21:10.427Z,10.50
2019-05-17T08:23:39.981Z,10.30
2019-05-17T08:26:10.690Z,11.60
2019-05-17T08:28:40.466Z,11.13
2019-05-17T08:31:10.000Z,9.90
2019-05-17T08:33:40.665Z,11.60
2019-05-17T08:36:09.703Z,10.40
2019-05-17T08:38:39.388Z,11.17
2019-05-17T08:41:10.499Z,11.07
2019-05-17T08:43:46.437Z,10.17
2019-05-17T08:46:10.690Z,9.93
2019-05-17T08:48:40.153Z,10.73
2019-05-17T08:51:10.756Z,11.30
2019-05-17T08:53:39.962Z,11.00
2019-05-17T08:56:10.011Z,10.70
2019-05-17T08:58:40.326Z,10.97
2019-05-17T09:01:11.171Z,11.23
2019-05-17T09:03:41.221Z,11.20
2019-05-17T09:06:12.341Z,11.03
2019-05-17T09:08:40.996Z,10.27
2019-05-17T09:11:10.069Z,11.93
2019-05-17T09:13:40.077Z,10.20
2019-05-17T09:16:10.701Z,11.50
2019-05-17T09:18:39.940Z,11.40
2019-05-17T09:21:09.738Z,12.60
2019-05-17T09:23:39.641Z,11.50
2019-05-17T09:26:10.101Z,12.40
2019-05-17T09:28:39.636Z,11.10
2019-05-17T09:31:10.408Z,11.03
2019-05-17T09:33:40.600Z,10.83
2019-05-17T09:36:10.250Z,12.37
2019-05-17T09:38:40.361Z,11.50
2019-05-17T09:41:09.616Z,11.70
2019-05-17T09:43:40.248Z,11.97
2019-05-17T09:46:10.594Z,11.87
2019-05-17T09:48:39.903Z,11.47
2019-05-17T09:51:10.497Z,12.17
2019-05-17T09:53:40.101Z,11.90
2019-05-17T09:56:10.019Z,31.97
2019-05-17T09:58:39.638Z,11.97
2019-05-17T10:01:09.593Z,11.50
2019-05-17T10:03:39.766Z,11.60
2019-05-17T10:06:09.630Z,13.30
2019-05-17T10:08:39.363Z,14.20
2019-05-17T10:11:11.982Z,13.23
2019-05-17T10:13:40.113Z,11.53
2019-05-17T10:16:10.104Z,12.90
2019-05-17T10:18:40.124Z,10.80
2019-05-17T10:21:10.461Z,12.10
2019-05-17T10:23:40.745Z,12.40
2019-05-17T10:26:10.233Z,12.90
2019-05-17T10:28:39.999Z,12.00
2019-05-17T10:31:11.368Z,12.77
2019-05-17T10:33:40.149Z,11.57
2019-05-17T10:36:09.604Z,12.07
2019-05-17T10:38:39.591Z,12.20
2019-05-17T10:41:10.145Z,12.10
2019-05-17T10:43:39.598Z,13.03
2019-05-17T10:46:10.579Z,12.50
2019-05-17T10:48:41.060Z,12.07
2019-05-17T10:51:13.270Z,11.47
2019-05-17T10:53:40.961Z,11.83
2019-05-17T10:56:10.126Z,11.00
2019-05-17T10:58:39.904Z,11.83
2019-05-17T11:01:10.308Z,9.27
2019-05-17T11:03:39.829Z,12.27
2019-05-17T11:06:10.941Z,10.47
2019-05-17T11:08:39.980Z,9.50
2019-05-17T11:11:10.183Z,10.20
2019-05-17T11:13:39.280Z,9.47
2019-05-17T11:16:08.355Z,9.70
2019-05-17T11:18:37.603Z,10.40
2019-05-17T11:21:06.702Z,10.53
2019-05-17T11:23:35.938Z,11.07
2019-05-17T11:26:05.027Z,11.20
2019-05-17T11:28:34.313Z,10.93
2019-05-17T11:31:03.290Z,10.37
2019-05-17T11:33:32.894Z,10.30
2019-05-17T11:36:01.754Z,9.30
2019-05-17T11:38:30.740Z,9.83
2019-05-17T11:40:59.768Z,8.77
2019-05-17T11:43:28.957Z,9.20
2019-05-17T11:45:57.841Z,9.00
2019-05-17T11:48:26.977Z,9.23
2019-05-17T11:50:56.009Z,8.70
2019-05-17T11:53:24.879Z,9.50
2019-05-17T11:55:53.786Z,8.40
2019-05-17T11:58:22.948Z,8.13
2019-05-17T12:00:52.297Z,9.47
2019-05-17T12:03:21.246Z,7.90
2019-05-17T12:05:50.193Z,9.07
2019-05-17T12:08:19.192Z,6.93
2019-05-17T12:10:48.287Z,7.70
2019-05-17T12:13:17.437Z,8.43
2019-05-17T12:15:46.321Z,7.50
2019-05-17T12:18:15.891Z,8.13
2019-05-17T12:20:44.836Z,8.80
2019-05-17T12:23:14.085Z,8.20
2019-05-17T12:25:43.008Z,7.60
2019-05-17T12:28:12.344Z,8.60
2019-05-17T12:30:41.357Z,8.67
2019-05-17T12:33:10.357Z,6.87
2019-05-17T12:35:39.299Z,7.60
2019-05-17T12:38:08.449Z,7.80
2019-05-17T12:40:37.300Z,7.90
2019-05-17T12:43:09.244Z,7.43
2019-05-17T12:45:38.100Z,7.20
2019-05-17T12:48:07.086Z,8.60
2019-05-17T12:50:36.012Z,7.10
2019-05-17T12:53:05.085Z,6.57
2019-05-17T12:55:34.006Z,7.27
2019-05-17T12:58:03.336Z,6.80
2019-05-17T13:00:33.178Z,7.37
2019-05-17T13:03:02.075Z,8.07
2019-05-17T13:05:31.399Z,6.00
2019-05-17T13:08:00.685Z,6.07
2019-05-17T13:10:48.812Z,6.10
2019-05-17T13:13:17.719Z,5.37
2019-05-17T13:15:46.702Z,5.17
2019-05-17T13:18:15.705Z,5.57
2019-05-17T13:20:45.117Z,5.63
2019-05-17T13:23:14.052Z,5.30
2019-05-17T13:25:42.894Z,5.97
2019-05-17T13:28:12.074Z,4.20
2019-05-17T13:30:41.001Z,4.40
2019-05-17T13:33:09.873Z,4.50
2019-05-17T13:35:38.721Z,5.50
2019-05-17T13:38:07.732Z,4.60
2019-05-17T13:40:39.690Z,4.33
2019-05-17T13:43:08.444Z,4.00
2019-05-17T13:45:37.287Z,3.47
2019-05-17T13:48:06.687Z,3.83
2019-05-17T13:50:35.898Z,4.13
2019-05-17T13:53:05.085Z,3.40
2019-05-17T13:55:34.021Z,4.00
2019-05-17T13:58:03.288Z,4.07
2019-05-17T14:00:32.585Z,3.80
2019-05-17T14:03:01.795Z,5.33
2019-05-17T14:05:30.723Z,3.97
2019-05-17T14:07:59.873Z,3.70
2019-05-17T14:10:31.939Z,4.23
2019-05-17T14:12:59.486Z,3.90
2019-05-17T14:15:28.398Z,3.80
2019-05-17T14:17:57.968Z,4.03
2019-05-17T14:20:27.159Z,4.50
2019-05-17T14:22:56.471Z,4.03
2019-05-17T14:25:25.500Z,3.80
2019-05-17T14:27:54.996Z,4.00
2019-05-17T14:30:24.157Z,4.10
2019-05-17T14:32:55.859Z,3.80
2019-05-17T14:35:24.813Z,3.67
2019-05-17T14:37:54.225Z,3.50
2019-05-17T14:40:23.246Z,3.80
2019-05-17T14:42:52.553Z,3.20
2019-05-17T14:45:21.650Z,3.30
2019-05-17T14:47:50.838Z,3.43
2019-05-17T14:50:19.895Z,3.10
2019-05-17T14:52:49.023Z,3.50
2019-05-17T14:55:18.113Z,3.00
2019-05-17T14:57:47.016Z,3.77
2019-05-17T15:00:16.239Z,3.53
2019-05-17T15:02:45.180Z,3.60
2019-05-17T15:05:14.498Z,3.70
2019-05-17T15:07:43.516Z,3.60
2019-05-17T15:10:12.636Z,3.97
2019-05-17T15:12:41.606Z,3.63
2019-05-17T15:15:11.066Z,3.90
2019-05-17T15:17:40.299Z,3.50
2019-05-17T15:20:10.253Z,3.93
2019-05-17T15:22:39.140Z,3.90
2019-05-17T15:25:08.261Z,4.00
2019-05-17T15:27:37.157Z,3.83
2019-05-17T15:30:06.468Z,4.10
2019-05-17T15:32:35.389Z,4.20
2019-05-17T15:35:04.641Z,3.90
2019-05-17T15:37:33.560Z,4.20
2019-05-17T15:40:02.535Z,4.33
2019-05-17T15:42:43.584Z,4.30
2019-05-17T15:45:02.502Z,4.03
2019-05-17T15:47:32.544Z,4.50
2019-05-17T15:50:01.686Z,3.60
2019-05-17T15:52:30.669Z,3.97
2019-05-17T15:55:00.119Z,3.60
2019-05-17T15:57:29.231Z,3.53
2019-05-17T15:59:58.266Z,3.80
2019-05-17T16:02:27.234Z,4.17
2019-05-17T16:04:56.507Z,4.07
2019-05-17T16:07:25.487Z,3.30
2019-05-17T16:09:54.593Z,3.70
2019-05-17T16:12:23.614Z,3.87
2019-05-17T16:14:52.984Z,3.60
2019-05-17T16:17:22.047Z,4.00
2019-05-17T16:19:51.037Z,3.90
2019-05-17T16:22:20.104Z,4.07
2019-05-17T16:24:49.154Z,3.63
2019-05-17T16:27:18.257Z,3.80
2019-05-17T16:29:47.350Z,3.33
2019-05-17T16:32:16.759Z,3.67
2019-05-17T16:34:45.734Z,3.80
2019-05-17T16:37:14.641Z,3.97
2019-05-17T16:39:43.746Z,3.60
2019-05-17T16:42:12.708Z,3.50
2019-05-17T16:44:41.639Z,3.60
2019-05-17T16:47:10.555Z,3.60
2019-05-17T16:49:39.495Z,3.83
2019-05-17T16:52:08.410Z,4.10
2019-05-17T16:54:37.265Z,3.60
2019-05-17T16:57:06.280Z,3.60
2019-05-17T16:59:35.489Z,3.33
2019-05-17T17:02:05.183Z,4.10
2019-05-17T17:04:34.586Z,3.47
2019-05-17T17:07:03.573Z,3.80
2019-05-17T17:09:32.877Z,4.30
2019-05-17T17:12:01.885Z,3.70
2019-05-17T17:14:31.527Z,3.70
2019-05-17T17:17:00.440Z,3.97
2019-05-17T17:19:29.305Z,3.70
2019-05-17T17:21:58.301Z,3.90
2019-05-17T17:24:27.963Z,4.30
2019-05-17T17:26:56.844Z,5.07
2019-05-17T17:29:25.784Z,4.83
2019-05-17T17:31:54.737Z,5.03
2019-05-17T17:34:23.648Z,5.30
2019-05-17T17:36:52.565Z,4.93
2019-05-17T17:39:21.497Z,4.03
2019-05-17T17:41:52.034Z,3.93
2019-05-17T17:44:21.037Z,4.20
2019-05-17T17:46:50.175Z,3.97
2019-05-17T17:49:19.109Z,3.90
2019-05-17T17:51:48.425Z,3.47
2019-05-17T17:54:17.279Z,3.50
2019-05-17T17:56:46.773Z,3.53
2019-05-17T17:59:15.766Z,3.17
2019-05-17T18:01:44.939Z,4.67
2019-05-17T18:04:13.937Z,3.70
2019-05-17T18:06:42.946Z,3.57
2019-05-17T18:09:11.857Z,3.00
2019-05-17T18:11:40.786Z,3.20
2019-05-17T18:14:13.303Z,3.00
2019-05-17T18:16:40.568Z,3.43
2019-05-17T18:19:09.413Z,3.20
2019-05-17T18:21:38.608Z,2.77
2019-05-17T18:24:07.628Z,3.00
2019-05-17T18:26:36.634Z,3.03
2019-05-17T18:29:07.957Z,2.40
2019-05-17T18:31:36.517Z,2.63
2019-05-17T18:34:05.724Z,3.00
2019-05-17T18:36:34.741Z,3.10
2019-05-17T18:39:06.020Z,2.30
2019-05-17T18:41:35.026Z,3.10
2019-05-17T18:44:04.421Z,3.03
2019-05-17T18:46:33.475Z,3.03
2019-05-17T18:49:02.426Z,3.00
2019-05-17T18:51:31.357Z,2.43
2019-05-17T18:54:01.192Z,3.33
2019-05-17T18:56:30.121Z,2.80
2019-05-17T18:58:59.008Z,3.07
2019-05-17T19:01:28.233Z,3.03
2019-05-17T19:03:57.437Z,2.93
2019-05-17T19:06:26.360Z,3.30
2019-05-17T19:08:55.624Z,4.10
2019-05-17T19:11:24.495Z,2.93
2019-05-17T19:13:53.416Z,3.17
2019-05-17T19:16:22.418Z,3.97
2019-05-17T19:18:51.709Z,3.07
2019-05-17T19:21:20.744Z,3.60
2019-05-17T19:23:49.601Z,3.50
2019-05-17T19:26:18.609Z,3.60
2019-05-17T19:28:47.453Z,3.70
2019-05-17T19:31:16.364Z,3.27
2019-05-17T19:33:45.591Z,3.80
2019-05-17T19:36:14.997Z,3.40
2019-05-17T19:38:43.911Z,3.50
2019-05-17T19:41:13.449Z,3.87
2019-05-17T19:43:42.854Z,3.47
2019-05-17T19:46:11.785Z,3.70
2019-05-17T19:48:40.969Z,2.90
2019-05-17T19:51:10.170Z,3.50
2019-05-17T19:53:39.520Z,3.63
2019-05-17T19:56:08.853Z,3.27
2019-05-17T19:58:37.812Z,3.20
2019-05-17T20:01:06.717Z,3.70
2019-05-17T20:03:35.682Z,3.80
2019-05-17T20:06:04.709Z,3.63
2019-05-17T20:08:33.566Z,3.80
2019-05-17T20:11:02.521Z,3.87
2019-05-17T20:13:31.450Z,3.10
2019-05-17T20:16:00.341Z,3.53
2019-05-17T20:18:29.630Z,3.30
2019-05-17T20:20:58.551Z,3.20
2019-05-17T20:23:27.782Z,3.20
2019-05-17T20:25:56.727Z,3.80
2019-05-17T20:28:25.653Z,3.70
2019-05-17T20:30:54.596Z,3.60
2019-05-17T20:33:23.465Z,3.70
2019-05-17T20:35:52.391Z,3.20
2019-05-17T20:38:21.323Z,3.87
2019-05-17T20:40:50.160Z,4.10
2019-05-17T20:43:19.538Z,4.73
2019-05-17T20:45:48.662Z,5.00
2019-05-17T20:48:17.543Z,5.10
2019-05-17T20:50:46.715Z,5.07
2019-05-17T20:53:18.738Z,5.17
2019-05-17T20:55:46.277Z,5.00
2019-05-17T20:58:15.209Z,5.23
2019-05-17T21:00:44.285Z,5.27
2019-05-17T21:03:13.998Z,5.17
2019-05-17T21:05:43.434Z,6.27
2019-05-17T21:08:12.289Z,5.40
2019-05-17T21:10:41.129Z,6.40
2019-05-17T21:13:09.983Z,8.97
2019-05-17T21:15:47.484Z,12.70
2019-05-17T21:18:09.843Z,12.40
2019-05-17T21:20:38.760Z,7.80
2019-05-17T21:23:07.681Z,7.97
2019-05-17T21:25:36.577Z,8.23
2019-05-17T21:28:05.921Z,10.97
2019-05-17T21:30:34.864Z,9.43
2019-05-17T21:33:03.800Z,9.00
2019-05-17T21:35:32.790Z,8.70
2019-05-17T21:38:01.745Z,8.93
2019-05-17T21:40:30.814Z,8.10
2019-05-17T21:43:00.065Z,8.00
2019-05-17T21:45:29.062Z,8.80
2019-05-17T21:47:58.377Z,8.00
2019-05-17T21:50:27.786Z,5.97
2019-05-17T21:52:56.788Z,7.47
2019-05-17T21:55:26.187Z,6.50
2019-05-17T21:57:55.093Z,5.53
2019-05-17T22:00:57.017Z,6.13
2019-05-17T22:03:26.343Z,3.93
2019-05-17T22:05:55.642Z,4.83
2019-05-17T22:08:24.770Z,4.70
2019-05-17T22:10:53.900Z,3.70
2019-05-17T22:13:23.017Z,4.37
2019-05-17T22:15:51.967Z,4.17
2019-05-17T22:18:20.846Z,6.00
2019-05-17T22:20:49.934Z,4.03
2019-05-17T22:23:18.911Z,4.30
2019-05-17T22:25:47.862Z,4.70
2019-05-17T22:28:16.845Z,3.83
2019-05-17T22:30:45.903Z,3.90
2019-05-17T22:33:14.877Z,3.23
2019-05-17T22:35:43.914Z,3.40
2019-05-17T22:38:13.381Z,3.13
2019-05-17T22:40:42.409Z,3.33
2019-05-17T22:43:11.396Z,3.50
2019-05-17T22:45:40.669Z,3.57
2019-05-17T22:48:09.960Z,3.50
2019-05-17T22:50:38.831Z,3.33
2019-05-17T22:53:07.875Z,3.63
2019-05-17T22:55:36.781Z,3.13
2019-05-17T22:58:06.228Z,3.60
2019-05-17T23:00:35.436Z,3.60
2019-05-17T23:03:04.436Z,3.50
2019-05-17T23:05:33.276Z,3.43
2019-05-17T23:08:02.155Z,4.33
2019-05-17T23:10:34.653Z,4.93
2019-05-17T23:13:01.742Z,5.80
2019-05-17T23:15:33.718Z,5.20
2019-05-17T23:18:02.637Z,4.57
2019-05-17T23:20:31.584Z,3.90
2019-05-17T23:23:00.495Z,3.47
2019-05-17T23:25:29.856Z,4.70
2019-05-17T23:27:58.689Z,5.60
2019-05-17T23:30:27.556Z,4.00
2019-05-17T23:32:56.754Z,5.00
2019-05-17T23:35:25.689Z,4.53
2019-05-17T23:37:54.522Z,3.50
2019-05-17T23:40:23.733Z,3.43
2019-05-17T23:42:52.570Z,3.77
2019-05-17T23:45:21.449Z,3.40
2019-05-17T23:47:50.609Z,3.77
2019-05-17T23:50:19.884Z,4.00
2019-05-17T23:52:49.009Z,3.30
2019-05-17T23:55:18.213Z,3.97
2019-05-17T23:57:47.048Z,3.90
